sim
Sign-in with your pilot id or email,
or register
Callsign
Passwort

Schedule Details

Flight Number: DLH2022
Departure: Munich Airport (EDDM) at 18:30
Arrival: Dusseldorf International Airport (EDDL) at 19:40
Route: Lufthansa Passenger Schedule. Enter filed route here before submitting Pirep.

Weather Information
Getting current METAR information for EDDM 221620Z VRB02KT 9999 FEW040CB 22/14 Q1010 NOSIG
Getting current METAR information for EDDL 221620Z 27003KT CAVOK 25/08 Q1007 NOSIG

Schedule Frequency

Route Map